sensor_id;sensor_type;location;lat;lon;timestamp;P1;durP1;ratioP1;P2;durP2;ratioP2
33912;SDS011;20200;52.084;5.224;2023-02-28T00:01:10;14.4;;;7.3;;
33912;SDS011;20200;52.084;5.224;2023-02-28T00:02:47;13.2;;;7.2;;
33912;SDS011;20200;52.084;5.224;2023-02-28T00:04:24;12.8;;;6.4;;
33912;SDS011;20200;52.084;5.224;2023-02-28T00:07:37;14.1;;;6.5;;
33912;SDS011;20200;52.084;5.224;2023-02-28T00:09:14;12.1;;;7.0;;
33912;SDS011;20200;52.084;5.224;2023-02-28T00:10:50;14.4;;;6.1;;
33912;SDS011;20200;52.084;5.224;2023-02-28T00:14:02;15.3;;;7.0;;
33912;SDS011;20200;52.084;5.224;2023-02-28T00:15:38;12.3;;;5.7;;
33912;SDS011;20200;52.084;5.224;2023-02-28T00:17:15;10.4;;;5.5;;
33912;SDS011;20200;52.084;5.224;2023-02-28T00:20:27;11.1;;;5.8;;
33912;SDS011;20200;52.084;5.224;2023-02-28T00:22:03;10.5;;;5.5;;
33912;SDS011;20200;52.084;5.224;2023-02-28T00:23:39;11.8;;;5.9;;
33912;SDS011;20200;52.084;5.224;2023-02-28T00:25:16;10.6;;;6.3;;
33912;SDS011;20200;52.084;5.224;2023-02-28T00:28:31;11.0;;;6.5;;
33912;SDS011;20200;52.084;5.224;2023-02-28T00:30:09;10.4;;;6.3;;
33912;SDS011;20200;52.084;5.224;2023-02-28T00:31:51;13.3;;;6.7;;
33912;SDS011;20200;52.084;5.224;2023-02-28T00:35:05;12.4;;;6.6;;
33912;SDS011;20200;52.084;5.224;2023-02-28T00:36:42;13.2;;;6.9;;
33912;SDS011;20200;52.084;5.224;2023-02-28T00:38:18;9.6;;;6.3;;
33912;SDS011;20200;52.084;5.224;2023-02-28T00:39:56;12.0;;;6.3;;
33912;SDS011;20200;52.084;5.224;2023-02-28T00:43:08;10.4;;;6.2;;
33912;SDS011;20200;52.084;5.224;2023-02-28T00:44:44;15.8;;;6.4;;
33912;SDS011;20200;52.084;5.224;2023-02-28T00:46:20;13.0;;;6.6;;
33912;SDS011;20200;52.084;5.224;2023-02-28T00:49:32;12.2;;;6.6;;
33912;SDS011;20200;52.084;5.224;2023-02-28T00:51:09;12.3;;;6.4;;
33912;SDS011;20200;52.084;5.224;2023-02-28T00:52:45;15.0;;;7.0;;
33912;SDS011;20200;52.084;5.224;2023-02-28T00:55:59;11.6;;;6.6;;
33912;SDS011;20200;52.084;5.224;2023-02-28T00:57:35;14.2;;;7.0;;
33912;SDS011;20200;52.084;5.224;2023-02-28T00:59:11;12.9;;;6.2;;
33912;SDS011;20200;52.084;5.224;2023-02-28T01:02:26;14.3;;;6.9;;
33912;SDS011;20200;52.084;5.224;2023-02-28T01:04:02;9.4;;;6.2;;
33912;SDS011;20200;52.084;5.224;2023-02-28T01:05:38;11.8;;;6.3;;
33912;SDS011;20200;52.084;5.224;2023-02-28T01:07:14;11.7;;;6.4;;
33912;SDS011;20200;52.084;5.224;2023-02-28T01:10:27;12.2;;;6.1;;
33912;SDS011;20200;52.084;5.224;2023-02-28T01:12:04;10.21;;;5.9;;
33912;SDS011;20200;52.084;5.224;2023-02-28T01:13:40;11.5;;;5.8;;
33912;SDS011;20200;52.084;5.224;2023-02-28T01:16:53;12.0;;;6.0;;
33912;SDS011;20200;52.084;5.224;2023-02-28T01:18:29;12.8;;;6.0;;
33912;SDS011;20200;52.084;5.224;2023-02-28T01:20:06;12.4;;;5.6;;
33912;SDS011;20200;52.084;5.224;2023-02-28T01:23:18;10.7;;;5.9;;
33912;SDS011;20200;52.084;5.224;2023-02-28T01:24:55;11.4;;;5.8;;
33912;SDS011;20200;52.084;5.224;2023-02-28T01:26:32;11.4;;;6.0;;
33912;SDS011;20200;52.084;5.224;2023-02-28T01:28:08;14.5;;;6.2;;
33912;SDS011;20200;52.084;5.224;2023-02-28T01:31:20;10.21;;;6.3;;
33912;SDS011;20200;52.084;5.224;2023-02-28T01:32:58;12.5;;;6.1;;
33912;SDS011;20200;52.084;5.224;2023-02-28T01:34:35;13.1;;;6.6;;
33912;SDS011;20200;52.084;5.224;2023-02-28T01:37:51;12.2;;;5.9;;
33912;SDS011;20200;52.084;5.224;2023-02-28T01:39:27;12.4;;;6.2;;
33912;SDS011;20200;52.084;5.224;2023-02-28T01:41:03;12.7;;;5.9;;
33912;SDS011;20200;52.084;5.224;2023-02-28T01:42:40;12.4;;;5.8;;
33912;SDS011;20200;52.084;5.224;2023-02-28T01:47:01;10.1;;;5.7;;
33912;SDS011;20200;52.084;5.224;2023-02-28T01:50:19;13.8;;;6.4;;
33912;SDS011;20200;52.084;5.224;2023-02-28T01:51:58;12.3;;;6.1;;
33912;SDS011;20200;52.084;5.224;2023-02-28T01:53:35;12.7;;;6.5;;
33912;SDS011;20200;52.084;5.224;2023-02-28T01:55:17;11.1;;;6.1;;
33912;SDS011;20200;52.084;5.224;2023-02-28T01:58:40;12.3;;;6.5;;
33912;SDS011;20200;52.084;5.224;2023-02-28T02:00:18;10.4;;;6.0;;
33912;SDS011;20200;52.084;5.224;2023-02-28T02:01:59;11.2;;;5.9;;
33912;SDS011;20200;52.084;5.224;2023-02-28T02:03:36;11.1;;;6.0;;
33912;SDS011;20200;52.084;5.224;2023-02-28T02:06:53;9.0;;;5.5;;
33912;SDS011;20200;52.084;5.224;2023-02-28T02:08:30;11.5;;;5.6;;
33912;SDS011;20200;52.084;5.224;2023-02-28T02:10:10;12.0;;;6.0;;
33912;SDS011;20200;52.084;5.224;2023-02-28T02:13:34;10.8;;;5.5;;
33912;SDS011;20200;52.084;5.224;2023-02-28T02:15:29;11.4;;;5.5;;
33912;SDS011;20200;52.084;5.224;2023-02-28T02:17:14;12.1;;;6.0;;
33912;SDS011;20200;52.084;5.224;2023-02-28T02:19:02;10.9;;;5.3;;
33912;SDS011;20200;52.084;5.224;2023-02-28T02:21:20;8.81;;;5.11;;
33912;SDS011;20200;52.084;5.224;2023-02-28T02:27:14;10.6;;;5.6;;
33912;SDS011;20200;52.084;5.224;2023-02-28T02:29:49;11.6;;;6.1;;
33912;SDS011;20200;52.084;5.224;2023-02-28T02:33:09;13.3;;;6.5;;
33912;SDS011;20200;52.084;5.224;2023-02-28T02:35:27;9.9;;;5.9;;
33912;SDS011;20200;52.084;5.224;2023-02-28T02:37:11;11.8;;;6.1;;
33912;SDS011;20200;52.084;5.224;2023-02-28T02:40:42;11.6;;;6.0;;
33912;SDS011;20200;52.084;5.224;2023-02-28T02:42:31;13.4;;;5.8;;
33912;SDS011;20200;52.084;5.224;2023-02-28T02:44:15;11.8;;;5.7;;
33912;SDS011;20200;52.084;5.224;2023-02-28T02:45:58;9.0;;;5.3;;
33912;SDS011;20200;52.084;5.224;2023-02-28T02:47:40;10.6;;;5.8;;
33912;SDS011;20200;52.084;5.224;2023-02-28T02:51:00;11.3;;;5.9;;
33912;SDS011;20200;52.084;5.224;2023-02-28T02:52:42;13.7;;;6.3;;
33912;SDS011;20200;52.084;5.224;2023-02-28T02:54:32;9.31;;;6.1;;
33912;SDS011;20200;52.084;5.224;2023-02-28T02:56:12;12.8;;;5.7;;
33912;SDS011;20200;52.084;5.224;2023-02-28T02:59:33;11.2;;;5.5;;
33912;SDS011;20200;52.084;5.224;2023-02-28T03:01:14;12.7;;;6.3;;
33912;SDS011;20200;52.084;5.224;2023-02-28T03:02:54;12.7;;;6.4;;
33912;SDS011;20200;52.084;5.224;2023-02-28T03:04:33;11.7;;;6.4;;
33912;SDS011;20200;52.084;5.224;2023-02-28T03:07:54;10.8;;;5.9;;
33912;SDS011;20200;52.084;5.224;2023-02-28T03:09:32;10.3;;;6.1;;
33912;SDS011;20200;52.084;5.224;2023-02-28T03:11:12;13.3;;;6.3;;
33912;SDS011;20200;52.084;5.224;2023-02-28T03:12:51;10.3;;;6.1;;
33912;SDS011;20200;52.084;5.224;2023-02-28T03:16:33;15.1;;;6.8;;
33912;SDS011;20200;52.084;5.224;2023-02-28T03:18:17;9.5;;;5.5;;
33912;SDS011;20200;52.084;5.224;2023-02-28T03:20:05;15.4;;;6.1;;
33912;SDS011;20200;52.084;5.224;2023-02-28T03:21:53;15.4;;;6.1;;
33912;SDS011;20200;52.084;5.224;2023-02-28T03:23:42;10.5;;;5.8;;
33912;SDS011;20200;52.084;5.224;2023-02-28T03:25:28;13.9;;;6.2;;
33912;SDS011;20200;52.084;5.224;2023-02-28T03:28:59;13.6;;;6.5;;
33912;SDS011;20200;52.084;5.224;2023-02-28T03:30:42;13.9;;;6.1;;
33912;SDS011;20200;52.084;5.224;2023-02-28T03:32:27;10.5;;;5.9;;
33912;SDS011;20200;52.084;5.224;2023-02-28T03:34:10;11.4;;;6.1;;
33912;SDS011;20200;52.084;5.224;2023-02-28T03:35:54;13.4;;;6.3;;
33912;SDS011;20200;52.084;5.224;2023-02-28T03:39:17;9.81;;;5.8;;
33912;SDS011;20200;52.084;5.224;2023-02-28T03:40:58;11.6;;;6.1;;
33912;SDS011;20200;52.084;5.224;2023-02-28T03:42:41;10.6;;;6.0;;
33912;SDS011;20200;52.084;5.224;2023-02-28T03:44:22;10.9;;;6.2;;
33912;SDS011;20200;52.084;5.224;2023-02-28T03:47:46;9.21;;;6.0;;
33912;SDS011;20200;52.084;5.224;2023-02-28T03:49:29;17.11;;;6.3;;
33912;SDS011;20200;52.084;5.224;2023-02-28T03:51:10;12.3;;;6.4;;
33912;SDS011;20200;52.084;5.224;2023-02-28T03:52:52;11.4;;;6.1;;
33912;SDS011;20200;52.084;5.224;2023-02-28T03:54:38;10.4;;;6.1;;
33912;SDS011;20200;52.084;5.224;2023-02-28T03:58:04;12.2;;;6.3;;
33912;SDS011;20200;52.084;5.224;2023-02-28T03:59:52;12.2;;;6.3;;
33912;SDS011;20200;52.084;5.224;2023-02-28T04:01:35;10.1;;;5.9;;
33912;SDS011;20200;52.084;5.224;2023-02-28T04:03:16;11.2;;;5.8;;
33912;SDS011;20200;52.084;5.224;2023-02-28T04:06:30;11.2;;;5.8;;
33912;SDS011;20200;52.084;5.224;2023-02-28T04:08:07;12.7;;;6.5;;
33912;SDS011;20200;52.084;5.224;2023-02-28T04:09:44;12.5;;;6.4;;
33912;SDS011;20200;52.084;5.224;2023-02-28T04:11:21;12.0;;;5.9;;
33912;SDS011;20200;52.084;5.224;2023-02-28T04:14:38;9.21;;;5.7;;
33912;SDS011;20200;52.084;5.224;2023-02-28T04:16:14;12.8;;;6.5;;
33912;SDS011;20200;52.084;5.224;2023-02-28T04:17:51;11.2;;;6.4;;
33912;SDS011;20200;52.084;5.224;2023-02-28T04:21:04;12.4;;;6.3;;
33912;SDS011;20200;52.084;5.224;2023-02-28T04:22:41;10.5;;;6.5;;
33912;SDS011;20200;52.084;5.224;2023-02-28T04:24:18;11.2;;;6.8;;
33912;SDS011;20200;52.084;5.224;2023-02-28T04:25:56;11.1;;;7.0;;
33912;SDS011;20200;52.084;5.224;2023-02-28T04:29:10;11.7;;;6.9;;
33912;SDS011;20200;52.084;5.224;2023-02-28T04:30:53;14.5;;;7.4;;
33912;SDS011;20200;52.084;5.224;2023-02-28T04:32:31;13.2;;;6.9;;
33912;SDS011;20200;52.084;5.224;2023-02-28T04:35:43;10.6;;;6.7;;
33912;SDS011;20200;52.084;5.224;2023-02-28T04:37:19;9.81;;;6.8;;
33912;SDS011;20200;52.084;5.224;2023-02-28T04:38:55;10.0;;;6.0;;
33912;SDS011;20200;52.084;5.224;2023-02-28T04:40:32;10.6;;;5.8;;
33912;SDS011;20200;52.084;5.224;2023-02-28T04:43:46;10.9;;;6.5;;
33912;SDS011;20200;52.084;5.224;2023-02-28T04:45:22;12.5;;;6.7;;
33912;SDS011;20200;52.084;5.224;2023-02-28T04:46:58;11.3;;;6.1;;
33912;SDS011;20200;52.084;5.224;2023-02-28T04:50:13;9.71;;;5.8;;
33912;SDS011;20200;52.084;5.224;2023-02-28T04:51:49;12.0;;;5.9;;
33912;SDS011;20200;52.084;5.224;2023-02-28T04:53:26;9.31;;;6.2;;
33912;SDS011;20200;52.084;5.224;2023-02-28T04:56:41;7.9;;;5.7;;
33912;SDS011;20200;52.084;5.224;2023-02-28T04:58:18;11.6;;;6.3;;
33912;SDS011;20200;52.084;5.224;2023-02-28T04:59:54;10.5;;;5.4;;
33912;SDS011;20200;52.084;5.224;2023-02-28T05:01:31;9.1;;;5.7;;
33912;SDS011;20200;52.084;5.224;2023-02-28T05:04:45;11.2;;;6.0;;
33912;SDS011;20200;52.084;5.224;2023-02-28T05:06:21;9.71;;;5.7;;
33912;SDS011;20200;52.084;5.224;2023-02-28T05:07:59;9.9;;;5.7;;
33912;SDS011;20200;52.084;5.224;2023-02-28T05:11:14;10.3;;;5.7;;
33912;SDS011;20200;52.084;5.224;2023-02-28T05:12:52;8.9;;;6.0;;
33912;SDS011;20200;52.084;5.224;2023-02-28T05:14:28;7.2;;;5.7;;
33912;SDS011;20200;52.084;5.224;2023-02-28T05:16:05;9.0;;;5.4;;
33912;SDS011;20200;52.084;5.224;2023-02-28T05:19:19;8.81;;;5.7;;
33912;SDS011;20200;52.084;5.224;2023-02-28T05:20:55;8.81;;;5.5;;
33912;SDS011;20200;52.084;5.224;2023-02-28T05:22:31;9.4;;;5.5;;
33912;SDS011;20200;52.084;5.224;2023-02-28T05:25:47;8.81;;;5.11;;
33912;SDS011;20200;52.084;5.224;2023-02-28T05:27:23;9.81;;;5.3;;
33912;SDS011;20200;52.084;5.224;2023-02-28T05:30:36;9.1;;;5.4;;
33912;SDS011;20200;52.084;5.224;2023-02-28T05:32:12;9.9;;;5.2;;
33912;SDS011;20200;52.084;5.224;2023-02-28T05:33:49;9.9;;;5.8;;
33912;SDS011;20200;52.084;5.224;2023-02-28T05:35:26;13.4;;;6.2;;
33912;SDS011;20200;52.084;5.224;2023-02-28T05:37:02;10.5;;;5.11;;
33912;SDS011;20200;52.084;5.224;2023-02-28T05:40:15;8.9;;;5.9;;
33912;SDS011;20200;52.084;5.224;2023-02-28T05:41:52;8.9;;;5.9;;
33912;SDS011;20200;52.084;5.224;2023-02-28T05:43:28;8.0;;;5.9;;
33912;SDS011;20200;52.084;5.224;2023-02-28T05:46:41;9.4;;;6.0;;
33912;SDS011;20200;52.084;5.224;2023-02-28T05:48:17;9.71;;;6.4;;
33912;SDS011;20200;52.084;5.224;2023-02-28T05:49:53;11.8;;;6.6;;
33912;SDS011;20200;52.084;5.224;2023-02-28T05:53:06;12.5;;;7.4;;
33912;SDS011;20200;52.084;5.224;2023-02-28T05:54:42;9.81;;;6.8;;
33912;SDS011;20200;52.084;5.224;2023-02-28T05:56:18;11.7;;;8.31;;
33912;SDS011;20200;52.084;5.224;2023-02-28T05:57:54;11.1;;;7.9;;
33912;SDS011;20200;52.084;5.224;2023-02-28T06:01:30;10.9;;;7.9;;
33912;SDS011;20200;52.084;5.224;2023-02-28T06:03:08;14.5;;;8.9;;
33912;SDS011;20200;52.084;5.224;2023-02-28T06:04:45;11.5;;;8.0;;
33912;SDS011;20200;52.084;5.224;2023-02-28T06:06:22;13.4;;;8.81;;
33912;SDS011;20200;52.084;5.224;2023-02-28T06:09:34;12.5;;;8.2;;
33912;SDS011;20200;52.084;5.224;2023-02-28T06:11:11;12.5;;;9.6;;
33912;SDS011;20200;52.084;5.224;2023-02-28T06:12:48;13.4;;;8.4;;
33912;SDS011;20200;52.084;5.224;2023-02-28T06:16:00;14.2;;;9.81;;
33912;SDS011;20200;52.084;5.224;2023-02-28T06:17:37;15.3;;;8.81;;
33912;SDS011;20200;52.084;5.224;2023-02-28T06:19:13;12.1;;;9.6;;
33912;SDS011;20200;52.084;5.224;2023-02-28T06:22:28;13.2;;;9.31;;
33912;SDS011;20200;52.084;5.224;2023-02-28T06:24:04;14.2;;;9.71;;
33912;SDS011;20200;52.084;5.224;2023-02-28T06:25:44;14.9;;;9.9;;
33912;SDS011;20200;52.084;5.224;2023-02-28T06:27:20;13.2;;;9.21;;
33912;SDS011;20200;52.084;5.224;2023-02-28T06:30:33;15.2;;;10.1;;
33912;SDS011;20200;52.084;5.224;2023-02-28T06:32:09;16.0;;;10.8;;
33912;SDS011;20200;52.084;5.224;2023-02-28T06:33:45;15.4;;;10.1;;
33912;SDS011;20200;52.084;5.224;2023-02-28T06:36:58;15.4;;;10.1;;
33912;SDS011;20200;52.084;5.224;2023-02-28T06:38:36;17.11;;;10.1;;
33912;SDS011;20200;52.084;5.224;2023-02-28T06:40:14;15.2;;;10.8;;
33912;SDS011;20200;52.084;5.224;2023-02-28T06:41:51;15.1;;;11.4;;
33912;SDS011;20200;52.084;5.224;2023-02-28T06:45:06;16.11;;;11.6;;
33912;SDS011;20200;52.084;5.224;2023-02-28T06:46:43;15.1;;;10.3;;
33912;SDS011;20200;52.084;5.224;2023-02-28T06:48:20;14.7;;;11.5;;
33912;SDS011;20200;52.084;5.224;2023-02-28T06:51:33;13.8;;;10.7;;
33912;SDS011;20200;52.084;5.224;2023-02-28T06:53:09;13.5;;;7.9;;
33912;SDS011;20200;52.084;5.224;2023-02-28T06:54:45;9.9;;;7.3;;
33912;SDS011;20200;52.084;5.224;2023-02-28T06:57:57;12.4;;;8.31;;
33912;SDS011;20200;52.084;5.224;2023-02-28T06:59:34;14.2;;;9.21;;
33912;SDS011;20200;52.084;5.224;2023-02-28T07:01:10;12.7;;;9.31;;
33912;SDS011;20200;52.084;5.224;2023-02-28T07:02:49;11.7;;;7.0;;
33912;SDS011;20200;52.084;5.224;2023-02-28T07:06:01;11.6;;;8.4;;
33912;SDS011;20200;52.084;5.224;2023-02-28T07:07:38;11.8;;;7.7;;
33912;SDS011;20200;52.084;5.224;2023-02-28T07:09:15;13.3;;;8.4;;
33912;SDS011;20200;52.084;5.224;2023-02-28T07:12:28;12.4;;;7.7;;
33912;SDS011;20200;52.084;5.224;2023-02-28T07:14:05;11.6;;;8.5;;
33912;SDS011;20200;52.084;5.224;2023-02-28T07:15:41;12.2;;;7.1;;
33912;SDS011;20200;52.084;5.224;2023-02-28T07:18:53;14.1;;;7.4;;
33912;SDS011;20200;52.084;5.224;2023-02-28T07:20:29;12.1;;;9.21;;
33912;SDS011;20200;52.084;5.224;2023-02-28T07:22:07;12.4;;;7.7;;
33912;SDS011;20200;52.084;5.224;2023-02-28T07:23:43;12.5;;;7.4;;
33912;SDS011;20200;52.084;5.224;2023-02-28T07:26:56;13.7;;;9.6;;
33912;SDS011;20200;52.084;5.224;2023-02-28T07:28:33;11.4;;;7.6;;
33912;SDS011;20200;52.084;5.224;2023-02-28T07:30:09;13.2;;;9.21;;
33912;SDS011;20200;52.084;5.224;2023-02-28T07:33:22;13.5;;;8.9;;
33912;SDS011;20200;52.084;5.224;2023-02-28T07:34:58;14.9;;;9.71;;
33912;SDS011;20200;52.084;5.224;2023-02-28T07:36:34;14.6;;;9.0;;
33912;SDS011;20200;52.084;5.224;2023-02-28T07:39:47;15.8;;;9.31;;
33912;SDS011;20200;52.084;5.224;2023-02-28T07:41:23;11.2;;;8.71;;
33912;SDS011;20200;52.084;5.224;2023-02-28T07:42:59;14.6;;;9.1;;
33912;SDS011;20200;52.084;5.224;2023-02-28T07:44:36;15.1;;;10.9;;
33912;SDS011;20200;52.084;5.224;2023-02-28T07:47:51;15.2;;;11.1;;
33912;SDS011;20200;52.084;5.224;2023-02-28T07:49:29;15.5;;;11.1;;
33912;SDS011;20200;52.084;5.224;2023-02-28T07:51:05;15.7;;;10.8;;
33912;SDS011;20200;52.084;5.224;2023-02-28T07:54:18;17.8;;;11.0;;
33912;SDS011;20200;52.084;5.224;2023-02-28T07:55:54;12.2;;;9.1;;
33912;SDS011;20200;52.084;5.224;2023-02-28T07:57:31;14.9;;;9.9;;
33912;SDS011;20200;52.084;5.224;2023-02-28T08:00:43;12.1;;;9.21;;
33912;SDS011;20200;52.084;5.224;2023-02-28T08:02:20;12.1;;;9.21;;
33912;SDS011;20200;52.084;5.224;2023-02-28T08:03:56;15.2;;;10.3;;
33912;SDS011;20200;52.084;5.224;2023-02-28T08:05:32;17.7;;;11.3;;
33912;SDS011;20200;52.084;5.224;2023-02-28T08:08:44;14.6;;;10.5;;
33912;SDS011;20200;52.084;5.224;2023-02-28T08:10:20;12.6;;;9.21;;
33912;SDS011;20200;52.084;5.224;2023-02-28T08:11:57;16.4;;;10.5;;
33912;SDS011;20200;52.084;5.224;2023-02-28T08:15:09;15.3;;;10.7;;
33912;SDS011;20200;52.084;5.224;2023-02-28T08:16:46;19.3;;;12.2;;
33912;SDS011;20200;52.084;5.224;2023-02-28T08:18:22;15.0;;;10.1;;
33912;SDS011;20200;52.084;5.224;2023-02-28T08:21:36;14.1;;;9.4;;
33912;SDS011;20200;52.084;5.224;2023-02-28T08:23:12;14.0;;;9.4;;
33912;SDS011;20200;52.084;5.224;2023-02-28T08:24:49;12.8;;;9.0;;
33912;SDS011;20200;52.084;5.224;2023-02-28T08:28:01;12.1;;;8.4;;
33912;SDS011;20200;52.084;5.224;2023-02-28T08:29:38;15.5;;;9.1;;
33912;SDS011;20200;52.084;5.224;2023-02-28T08:31:15;13.9;;;9.71;;
33912;SDS011;20200;52.084;5.224;2023-02-28T08:32:53;12.0;;;8.4;;
33912;SDS011;20200;52.084;5.224;2023-02-28T08:36:05;13.8;;;8.31;;
33912;SDS011;20200;52.084;5.224;2023-02-28T08:37:43;10.6;;;8.0;;
33912;SDS011;20200;52.084;5.224;2023-02-28T08:39:19;12.5;;;8.1;;
33912;SDS011;20200;52.084;5.224;2023-02-28T08:42:34;10.8;;;7.3;;
33912;SDS011;20200;52.084;5.224;2023-02-28T08:44:11;11.3;;;7.4;;
33912;SDS011;20200;52.084;5.224;2023-02-28T08:45:50;12.2;;;8.31;;
33912;SDS011;20200;52.084;5.224;2023-02-28T08:47:27;9.81;;;7.1;;
33912;SDS011;20200;52.084;5.224;2023-02-28T08:50:39;10.9;;;7.2;;
33912;SDS011;20200;52.084;5.224;2023-02-28T08:52:15;9.71;;;7.1;;
33912;SDS011;20200;52.084;5.224;2023-02-28T08:53:53;9.71;;;6.8;;
33912;SDS011;20200;52.084;5.224;2023-02-28T08:57:06;9.0;;;5.9;;
33912;SDS011;20200;52.084;5.224;2023-02-28T08:58:43;10.5;;;6.4;;
33912;SDS011;20200;52.084;5.224;2023-02-28T09:00:21;10.5;;;6.4;;
33912;SDS011;20200;52.084;5.224;2023-02-28T09:03:33;9.31;;;6.4;;
33912;SDS011;20200;52.084;5.224;2023-02-28T09:05:10;9.1;;;5.8;;
33912;SDS011;20200;52.084;5.224;2023-02-28T09:06:46;10.6;;;6.1;;
33912;SDS011;20200;52.084;5.224;2023-02-28T09:08:22;10.7;;;6.2;;
33912;SDS011;20200;52.084;5.224;2023-02-28T09:11:35;11.1;;;5.9;;
33912;SDS011;20200;52.084;5.224;2023-02-28T09:13:12;11.1;;;6.1;;
33912;SDS011;20200;52.084;5.224;2023-02-28T09:14:48;10.1;;;6.5;;
33912;SDS011;20200;52.084;5.224;2023-02-28T09:18:01;8.9;;;5.8;;
33912;SDS011;20200;52.084;5.224;2023-02-28T09:19:37;8.5;;;5.9;;
33912;SDS011;20200;52.084;5.224;2023-02-28T09:21:14;9.9;;;5.5;;
33912;SDS011;20200;52.084;5.224;2023-02-28T09:24:28;9.4;;;5.7;;
33912;SDS011;20200;52.084;5.224;2023-02-28T09:26:04;7.9;;;4.91;;
33912;SDS011;20200;52.084;5.224;2023-02-28T09:27:41;9.1;;;5.2;;
33912;SDS011;20200;52.084;5.224;2023-02-28T09:29:17;9.0;;;4.5;;
33912;SDS011;20200;52.084;5.224;2023-02-28T09:32:31;7.5;;;4.91;;
33912;SDS011;20200;52.084;5.224;2023-02-28T09:34:07;6.9;;;5.11;;
33912;SDS011;20200;52.084;5.224;2023-02-28T09:35:43;9.0;;;5.6;;
33912;SDS011;20200;52.084;5.224;2023-02-28T09:38:55;7.2;;;4.8;;
33912;SDS011;20200;52.084;5.224;2023-02-28T09:40:32;6.2;;;4.2;;
33912;SDS011;20200;52.084;5.224;2023-02-28T09:42:17;7.8;;;4.3;;
33912;SDS011;20200;52.084;5.224;2023-02-28T09:44:05;6.2;;;4.5;;
33912;SDS011;20200;52.084;5.224;2023-02-28T09:47:31;6.2;;;4.5;;
33912;SDS011;20200;52.084;5.224;2023-02-28T09:49:12;7.3;;;4.1;;
33912;SDS011;20200;52.084;5.224;2023-02-28T09:50:52;5.6;;;3.9;;
33912;SDS011;20200;52.084;5.224;2023-02-28T09:52:36;5.8;;;3.9;;
33912;SDS011;20200;52.084;5.224;2023-02-28T09:55:53;7.2;;;3.8;;
33912;SDS011;20200;52.084;5.224;2023-02-28T09:57:36;5.11;;;3.0;;
33912;SDS011;20200;52.084;5.224;2023-02-28T09:59:18;5.0;;;2.8;;
33912;SDS011;20200;52.084;5.224;2023-02-28T10:01:18;4.8;;;2.6;;
33912;SDS011;20200;52.084;5.224;2023-02-28T10:03:12;3.7;;;2.31;;
33912;SDS011;20200;52.084;5.224;2023-02-28T10:05:02;2.8;;;2.0;;
33912;SDS011;20200;52.084;5.224;2023-02-28T10:08:25;3.6;;;2.21;;
33912;SDS011;20200;52.084;5.224;2023-02-28T10:10:10;4.2;;;2.21;;
33912;SDS011;20200;52.084;5.224;2023-02-28T10:11:57;3.6;;;2.4;;
33912;SDS011;20200;52.084;5.224;2023-02-28T10:13:42;3.2;;;2.1;;
33912;SDS011;20200;52.084;5.224;2023-02-28T10:15:27;3.2;;;2.31;;
33912;SDS011;20200;52.084;5.224;2023-02-28T10:18:50;2.4;;;1.9;;
33912;SDS011;20200;52.084;5.224;2023-02-28T10:20:35;3.3;;;2.21;;
33912;SDS011;20200;52.084;5.224;2023-02-28T10:22:14;3.5;;;2.1;;
33912;SDS011;20200;52.084;5.224;2023-02-28T10:23:59;4.91;;;2.5;;
33912;SDS011;20200;52.084;5.224;2023-02-28T10:25:54;4.41;;;2.4;;
33912;SDS011;20200;52.084;5.224;2023-02-28T10:29:10;4.7;;;2.31;;
33912;SDS011;20200;52.084;5.224;2023-02-28T10:30:47;4.5;;;2.31;;
33912;SDS011;20200;52.084;5.224;2023-02-28T10:32:26;4.5;;;2.5;;
33912;SDS011;20200;52.084;5.224;2023-02-28T10:34:07;5.6;;;2.6;;
33912;SDS011;20200;52.084;5.224;2023-02-28T10:37:24;4.0;;;2.7;;
33912;SDS011;20200;52.084;5.224;2023-02-28T10:39:01;4.1;;;2.7;;
33912;SDS011;20200;52.084;5.224;2023-02-28T10:41:11;5.7;;;4.0;;
33912;SDS011;20200;52.084;5.224;2023-02-28T10:42:54;4.7;;;3.4;;
33912;SDS011;20200;52.084;5.224;2023-02-28T10:44:34;4.2;;;2.4;;
33912;SDS011;20200;52.084;5.224;2023-02-28T10:47:52;4.2;;;2.5;;
33912;SDS011;20200;52.084;5.224;2023-02-28T10:49:30;3.6;;;2.31;;
33912;SDS011;20200;52.084;5.224;2023-02-28T10:51:07;2.9;;;2.21;;
33912;SDS011;20200;52.084;5.224;2023-02-28T10:54:22;6.0;;;2.6;;
33912;SDS011;20200;52.084;5.224;2023-02-28T10:56:04;4.5;;;2.21;;
33912;SDS011;20200;52.084;5.224;2023-02-28T10:57:49;4.5;;;2.4;;
33912;SDS011;20200;52.084;5.224;2023-02-28T10:59:27;3.6;;;2.1;;
33912;SDS011;20200;52.084;5.224;2023-02-28T11:02:49;4.91;;;2.4;;
33912;SDS011;20200;52.084;5.224;2023-02-28T11:04:34;4.8;;;2.21;;
33912;SDS011;20200;52.084;5.224;2023-02-28T11:06:14;3.6;;;2.4;;
33912;SDS011;20200;52.084;5.224;2023-02-28T11:07:55;3.7;;;2.5;;
33912;SDS011;20200;52.084;5.224;2023-02-28T11:11:14;3.2;;;2.5;;
33912;SDS011;20200;52.084;5.224;2023-02-28T11:12:53;4.41;;;2.9;;
33912;SDS011;20200;52.084;5.224;2023-02-28T11:14:31;4.41;;;2.21;;
33912;SDS011;20200;52.084;5.224;2023-02-28T11:16:29;6.0;;;2.21;;
33912;SDS011;20200;52.084;5.224;2023-02-28T11:18:18;6.7;;;2.31;;
33912;SDS011;20200;52.084;5.224;2023-02-28T11:21:39;4.0;;;2.8;;
33912;SDS011;20200;52.084;5.224;2023-02-28T11:23:24;3.7;;;2.31;;
33912;SDS011;20200;52.084;5.224;2023-02-28T11:25:06;6.3;;;2.31;;
33912;SDS011;20200;52.084;5.224;2023-02-28T11:26:46;4.3;;;2.31;;
33912;SDS011;20200;52.084;5.224;2023-02-28T11:30:11;4.5;;;2.31;;
33912;SDS011;20200;52.084;5.224;2023-02-28T11:32:01;4.2;;;2.4;;
33912;SDS011;20200;52.084;5.224;2023-02-28T11:33:48;4.41;;;2.4;;
33912;SDS011;20200;52.084;5.224;2023-02-28T11:37:11;3.2;;;2.0;;
33912;SDS011;20200;52.084;5.224;2023-02-28T11:40:33;3.6;;;2.4;;
33912;SDS011;20200;52.084;5.224;2023-02-28T11:42:23;4.7;;;2.4;;
33912;SDS011;20200;52.084;5.224;2023-02-28T11:45:17;2.5;;;2.31;;
33912;SDS011;20200;52.084;5.224;2023-02-28T11:49:02;4.0;;;2.31;;
33912;SDS011;20200;52.084;5.224;2023-02-28T11:50:56;5.11;;;2.1;;
33912;SDS011;20200;52.084;5.224;2023-02-28T11:52:43;3.3;;;2.31;;
33912;SDS011;20200;52.084;5.224;2023-02-28T11:54:27;3.5;;;2.31;;
33912;SDS011;20200;52.084;5.224;2023-02-28T11:56:29;3.9;;;2.5;;
33912;SDS011;20200;52.084;5.224;2023-02-28T11:58:19;3.7;;;2.4;;
33912;SDS011;20200;52.084;5.224;2023-02-28T12:00:30;4.0;;;2.31;;
33912;SDS011;20200;52.084;5.224;2023-02-28T12:02:22;3.6;;;2.21;;
33912;SDS011;20200;52.084;5.224;2023-02-28T12:04:03;3.3;;;2.21;;
33912;SDS011;20200;52.084;5.224;2023-02-28T12:07:55;4.5;;;2.5;;
33912;SDS011;20200;52.084;5.224;2023-02-28T12:09:46;3.6;;;2.21;;
33912;SDS011;20200;52.084;5.224;2023-02-28T12:11:39;3.0;;;2.0;;
33912;SDS011;20200;52.084;5.224;2023-02-28T12:13:28;3.7;;;2.4;;
33912;SDS011;20200;52.084;5.224;2023-02-28T12:18:26;4.91;;;2.21;;
33912;SDS011;20200;52.084;5.224;2023-02-28T12:20:29;3.7;;;2.31;;
33912;SDS011;20200;52.084;5.224;2023-02-28T12:22:15;3.0;;;2.1;;
33912;SDS011;20200;52.084;5.224;2023-02-28T12:24:08;4.41;;;2.4;;
33912;SDS011;20200;52.084;5.224;2023-02-28T12:26:27;2.9;;;2.1;;
33912;SDS011;20200;52.084;5.224;2023-02-28T12:28:13;2.9;;;2.21;;
33912;SDS011;20200;52.084;5.224;2023-02-28T12:29:54;4.8;;;2.31;;
33912;SDS011;20200;52.084;5.224;2023-02-28T12:31:35;4.0;;;2.5;;
33912;SDS011;20200;52.084;5.224;2023-02-28T12:34:57;3.4;;;2.1;;
33912;SDS011;20200;52.084;5.224;2023-02-28T12:36:40;4.7;;;2.21;;
33912;SDS011;20200;52.084;5.224;2023-02-28T12:38:19;7.0;;;3.0;;
33912;SDS011;20200;52.084;5.224;2023-02-28T12:40:01;3.1;;;2.0;;
33912;SDS011;20200;52.084;5.224;2023-02-28T12:41:41;3.3;;;2.1;;
33912;SDS011;20200;52.084;5.224;2023-02-28T12:45:09;4.91;;;2.31;;
33912;SDS011;20200;52.084;5.224;2023-02-28T12:46:51;3.1;;;2.0;;
33912;SDS011;20200;52.084;5.224;2023-02-28T12:48:36;3.6;;;2.21;;
33912;SDS011;20200;52.084;5.224;2023-02-28T12:50:18;3.6;;;2.1;;
33912;SDS011;20200;52.084;5.224;2023-02-28T12:53:35;3.4;;;2.21;;
33912;SDS011;20200;52.084;5.224;2023-02-28T12:55:27;2.8;;;2.0;;
33912;SDS011;20200;52.084;5.224;2023-02-28T12:57:15;4.7;;;2.4;;
33912;SDS011;20200;52.084;5.224;2023-02-28T12:59:01;4.61;;;2.4;;
33912;SDS011;20200;52.084;5.224;2023-02-28T13:00:48;2.4;;;2.1;;
33912;SDS011;20200;52.084;5.224;2023-02-28T13:03:41;4.41;;;2.21;;